createdAt,value
2022-08-05T00:02:22.028Z,100481.38
2022-08-05T00:04:55.542Z,100486.91
2022-08-05T00:07:59.799Z,100474.22
2022-08-05T00:10:10.466Z,100467.88
2022-08-05T00:12:48.487Z,100469.22
2022-08-05T00:15:55.905Z,100470.63
2022-08-05T00:18:10.429Z,100468.13
2022-08-05T00:20:48.852Z,100461.78
2022-08-05T00:23:15.478Z,100459.31
2022-08-05T00:25:46.148Z,100466.72
2022-08-05T00:28:13.460Z,100458.50
2022-08-05T00:30:41.231Z,100461.50
2022-08-05T00:33:15.436Z,100462.00
2022-08-05T00:36:16.040Z,100463.91
2022-08-05T00:38:44.327Z,100471.88
2022-08-05T00:41:11.762Z,100475.47
2022-08-05T00:43:46.704Z,100475.97
2022-08-05T00:46:16.026Z,100478.13
2022-08-05T00:48:51.117Z,100476.50
2022-08-05T00:51:50.935Z,100479.81
2022-08-05T00:54:05.818Z,100500.63
2022-08-05T00:56:32.315Z,100498.72
2022-08-05T00:59:00.198Z,100488.53
2022-08-05T01:01:42.574Z,100499.97
2022-08-05T01:04:14.058Z,100495.56
2022-08-05T01:07:22.774Z,100491.69
2022-08-05T01:09:58.842Z,100493.31
2022-08-05T01:12:29.801Z,100500.38
2022-08-05T01:15:04.042Z,100506.38
2022-08-05T01:17:31.597Z,100512.03
2022-08-05T01:20:31.593Z,100505.19
2022-08-05T01:23:40.586Z,100498.19
2022-08-05T01:26:13.958Z,100502.19
2022-08-05T01:29:05.161Z,100506.84
2022-08-05T01:31:46.915Z,100520.13
2022-08-05T01:34:35.792Z,100498.22
2022-08-05T01:37:24.665Z,100501.25
2022-08-05T01:39:58.722Z,100517.91
2022-08-05T01:42:27.763Z,100497.00
2022-08-05T01:44:56.630Z,100499.22
2022-08-05T01:47:39.655Z,100520.06
2022-08-05T01:50:16.021Z,100501.84
2022-08-05T01:52:50.023Z,100503.75
2022-08-05T01:55:20.290Z,100502.25
2022-08-05T01:58:12.462Z,100499.59
2022-08-05T02:00:41.982Z,100491.31
2022-08-05T02:03:46.671Z,100488.47
2022-08-05T02:06:33.935Z,100494.19
2022-08-05T02:09:00.797Z,100498.22
2022-08-05T02:11:37.574Z,100493.00
2022-08-05T02:14:13.127Z,100487.25
2022-08-05T02:16:44.561Z,100484.84
2022-08-05T02:19:22.754Z,100480.13
2022-08-05T02:22:26.597Z,100494.47
2022-08-05T02:25:03.579Z,100495.72
2022-08-05T02:27:57.896Z,100494.34
2022-08-05T02:30:20.653Z,100499.50
2022-08-05T02:32:51.300Z,100499.38
2022-08-05T02:35:22.151Z,100504.22
2022-08-05T02:37:56.687Z,100501.78
2022-08-05T02:40:27.442Z,100505.97
2022-08-05T02:42:55.646Z,100501.66
2022-08-05T02:45:25.348Z,100496.81
2022-08-05T02:48:11.435Z,100500.97
2022-08-05T02:50:43.772Z,100503.44
2022-08-05T02:53:19.095Z,100495.81
2022-08-05T02:55:59.519Z,100492.34
2022-08-05T02:58:30.066Z,100492.78
2022-08-05T03:01:00.855Z,100489.41
2022-08-05T03:03:33.693Z,100488.69
2022-08-05T03:06:55.888Z,100477.50
2022-08-05T03:08:52.431Z,100480.81
2022-08-05T03:11:56.954Z,100480.53
2022-08-05T03:14:09.960Z,100475.97
2022-08-05T03:16:40.490Z,100468.69
2022-08-05T03:19:17.373Z,100469.19
2022-08-05T03:21:53.623Z,100460.53
2022-08-05T03:24:29.358Z,100469.03
2022-08-05T03:26:56.940Z,100465.94
2022-08-05T03:29:24.063Z,100472.06
2022-08-05T03:31:56.900Z,100461.97
2022-08-05T03:34:28.769Z,100464.13
2022-08-05T03:36:55.380Z,100467.16
2022-08-05T03:39:27.112Z,100474.28
2022-08-05T03:41:56.262Z,100476.22
2022-08-05T03:44:23.481Z,100472.72
2022-08-05T03:46:50.140Z,100477.69
2022-08-05T03:49:16.999Z,100479.25
2022-08-05T03:52:48.707Z,100480.84
2022-08-05T03:55:51.304Z,100484.66
2022-08-05T03:57:41.416Z,100491.16
2022-08-05T04:00:11.489Z,100491.50
2022-08-05T04:02:57.578Z,100496.59
2022-08-05T04:05:28.006Z,100497.59
2022-08-05T04:08:03.493Z,100499.09
2022-08-05T04:10:37.982Z,100488.06
2022-08-05T04:13:07.249Z,100486.66
2022-08-05T04:15:36.532Z,100487.47
2022-08-05T04:18:09.313Z,100487.91
2022-08-05T04:20:36.461Z,100488.06
2022-08-05T04:23:03.105Z,100484.66
2022-08-05T04:25:56.639Z,100484.84
2022-08-05T04:28:17.416Z,100498.63
2022-08-05T04:30:44.187Z,100499.72
2022-08-05T04:33:11.014Z,100501.88
2022-08-05T04:36:10.900Z,100505.94
2022-08-05T04:38:39.463Z,100509.41
2022-08-05T04:41:07.469Z,100507.25
2022-08-05T04:43:37.422Z,100516.38
2022-08-05T04:46:05.059Z,100513.31
2022-08-05T04:48:32.176Z,100510.38
2022-08-05T04:51:03.839Z,100510.03
2022-08-05T04:53:38.556Z,100498.78
2022-08-05T04:56:33.068Z,100495.31
2022-08-05T04:58:54.324Z,100503.66
2022-08-05T05:01:33.693Z,100511.28
2022-08-05T05:04:07.535Z,100508.31
2022-08-05T05:06:39.827Z,100513.16
2022-08-05T05:09:14.125Z,100519.94
2022-08-05T05:11:54.444Z,100520.28
2022-08-05T05:14:31.718Z,100524.41
2022-08-05T05:17:01.774Z,100521.75
2022-08-05T05:19:37.162Z,100532.72
2022-08-05T05:22:22.782Z,100539.00
2022-08-05T05:24:57.335Z,100548.19
2022-08-05T05:27:44.793Z,100555.09
2022-08-05T05:30:29.190Z,100577.00
2022-08-05T05:32:57.166Z,100597.00
2022-08-05T05:35:27.896Z,100597.09
2022-08-05T05:38:00.155Z,100582.16
2022-08-05T05:40:29.348Z,100572.03
2022-08-05T05:42:57.307Z,100578.41
2022-08-05T05:45:24.703Z,100581.31
2022-08-05T05:48:06.555Z,100588.94
2022-08-05T05:50:41.033Z,100586.28
2022-08-05T05:53:21.340Z,100596.16
2022-08-05T05:55:52.345Z,100614.16
2022-08-05T05:58:31.719Z,100639.88
2022-08-05T06:01:02.556Z,100655.63
2022-08-05T06:04:01.720Z,100645.88
2022-08-05T06:06:28.229Z,100642.19
2022-08-05T06:08:57.460Z,100636.38
2022-08-05T06:11:24.041Z,100654.88
2022-08-05T06:13:54.005Z,100665.41
2022-08-05T06:16:28.518Z,100669.91
2022-08-05T06:19:00.878Z,100674.97
2022-08-05T06:21:36.140Z,100681.06
2022-08-05T06:24:04.517Z,100687.41
2022-08-05T06:26:33.934Z,100679.84
2022-08-05T06:29:06.033Z,100676.53
2022-08-05T06:31:48.132Z,100661.66
2022-08-05T06:34:19.903Z,100658.97
2022-08-05T06:36:57.472Z,100653.31
2022-08-05T06:39:27.076Z,100643.09
2022-08-05T06:41:58.640Z,100631.06
2022-08-05T06:44:25.635Z,100634.75
2022-08-05T06:46:52.644Z,100652.41
2022-08-05T06:49:21.369Z,100649.59
2022-08-05T06:52:07.597Z,100660.22
2022-08-05T06:54:54.048Z,100651.69
2022-08-05T06:58:02.725Z,100648.09
2022-08-05T07:00:07.859Z,100641.38
2022-08-05T07:02:46.129Z,100647.00
2022-08-05T07:05:18.596Z,100651.41
2022-08-05T07:07:48.853Z,100661.81
2022-08-05T07:10:16.387Z,100659.25
2022-08-05T07:13:01.944Z,100669.44
2022-08-05T07:16:00.992Z,100687.84
2022-08-05T07:18:31.540Z,100706.94
2022-08-05T07:20:58.484Z,100711.75
2022-08-05T07:23:32.147Z,100718.31
2022-08-05T07:25:59.134Z,100712.09
2022-08-05T07:28:26.302Z,100711.06
2022-08-05T07:30:54.996Z,100707.41
2022-08-05T07:33:36.464Z,100691.41
2022-08-05T07:36:21.498Z,100699.06
2022-08-05T07:38:49.167Z,100684.00
2022-08-05T07:42:13.277Z,100676.38
2022-08-05T07:44:18.545Z,100684.75
2022-08-05T07:46:48.639Z,100699.25
2022-08-05T07:49:18.284Z,100699.94
2022-08-05T07:51:53.355Z,100700.41
2022-08-05T07:54:31.684Z,100680.28
2022-08-05T07:57:17.611Z,100681.75
2022-08-05T07:59:49.260Z,100679.19
2022-08-05T08:02:17.662Z,100683.59
2022-08-05T08:04:49.388Z,100681.50
2022-08-05T08:07:16.418Z,100683.19
2022-08-05T08:09:44.738Z,100677.31
2022-08-05T08:12:33.541Z,100675.94
2022-08-05T08:15:02.191Z,100668.28
2022-08-05T08:17:31.252Z,100668.00
2022-08-05T08:20:21.496Z,100666.84
2022-08-05T08:22:44.358Z,100651.16
2022-08-05T08:25:15.688Z,100644.19
2022-08-05T08:27:44.765Z,100645.09
2022-08-05T08:30:27.006Z,100659.44
2022-08-05T08:32:56.896Z,100683.25
2022-08-05T08:35:26.762Z,100711.50
2022-08-05T08:37:56.285Z,100716.66
2022-08-05T08:40:23.760Z,100703.63
2022-08-05T08:42:53.023Z,100707.81
2022-08-05T08:45:26.752Z,100712.06
2022-08-05T08:48:12.654Z,100726.66
2022-08-05T08:51:22.004Z,100728.44
2022-08-05T08:53:35.477Z,100711.50
2022-08-05T08:56:05.957Z,100728.66
2022-08-05T08:58:43.949Z,100736.13
2022-08-05T09:01:17.238Z,100751.97
2022-08-05T09:03:54.258Z,100763.06
2022-08-05T09:06:24.325Z,100756.75
2022-08-05T09:08:57.941Z,100752.38
2022-08-05T09:11:51.549Z,100755.19
2022-08-05T09:14:57.620Z,100758.81
2022-08-05T09:17:03.767Z,100759.50
2022-08-05T09:19:36.874Z,100759.84
2022-08-05T09:22:22.396Z,100752.84
2022-08-05T09:25:13.814Z,100762.00
2022-08-05T09:28:05.961Z,100762.75
2022-08-05T09:30:34.281Z,100753.00
2022-08-05T09:33:04.918Z,100766.09
2022-08-05T09:35:32.705Z,100770.75
2022-08-05T09:38:16.853Z,100773.16
2022-08-05T09:40:53.732Z,100771.84
2022-08-05T09:43:30.835Z,100766.34
2022-08-05T09:46:28.002Z,100763.63
2022-08-05T09:49:08.054Z,100731.34
2022-08-05T09:51:43.158Z,100733.81
2022-08-05T09:54:10.097Z,100724.63
2022-08-05T09:56:38.450Z,100715.47
2022-08-05T09:59:08.350Z,100715.19
2022-08-05T10:01:39.723Z,100693.34
2022-08-05T10:04:15.934Z,100671.00
2022-08-05T10:06:58.974Z,100666.16
2022-08-05T10:09:28.199Z,100681.59
2022-08-05T10:12:30.591Z,100697.50
2022-08-05T10:15:16.961Z,100697.09
2022-08-05T10:17:54.465Z,100716.75
2022-08-05T10:20:23.924Z,100722.25
2022-08-05T10:22:52.366Z,100711.75
2022-08-05T10:25:19.525Z,100731.47
2022-08-05T10:28:09.358Z,100741.31
2022-08-05T10:31:20.921Z,100755.75
2022-08-05T10:33:25.590Z,100762.84
2022-08-05T10:35:59.702Z,100782.72
2022-08-05T10:38:28.556Z,100790.25
2022-08-05T10:41:23.239Z,100772.06
2022-08-05T10:44:00.914Z,100748.28
2022-08-05T10:46:43.640Z,100742.53
2022-08-05T10:49:16.744Z,100746.34
2022-08-05T10:52:00.270Z,100757.22
2022-08-05T10:54:56.254Z,100757.66
2022-08-05T10:57:31.799Z,100746.25
2022-08-05T11:00:22.795Z,100738.69
2022-08-05T11:03:25.144Z,100738.53
2022-08-05T11:06:16.234Z,100731.56
2022-08-05T11:09:24.499Z,100725.81
2022-08-05T11:12:26.810Z,100736.81
2022-08-05T11:15:21.260Z,100730.06
2022-08-05T11:18:05.901Z,100741.75
2022-08-05T11:20:46.098Z,100762.38
2022-08-05T11:24:05.717Z,100761.88
2022-08-05T11:26:33.871Z,100766.59
2022-08-05T11:29:11.489Z,100760.78
2022-08-05T11:31:58.375Z,100765.22
2022-08-05T11:34:38.900Z,100770.41
2022-08-05T11:37:06.093Z,100771.47
2022-08-05T11:39:55.229Z,100776.97
2022-08-05T11:42:27.977Z,100774.72
2022-08-05T11:45:02.446Z,100769.63
2022-08-05T11:47:49.511Z,100770.03
2022-08-05T11:50:17.729Z,100765.47
2022-08-05T11:52:46.181Z,100763.97
2022-08-05T11:55:16.177Z,100765.16
2022-08-05T11:58:10.520Z,100762.19
2022-08-05T12:00:38.626Z,100769.63
2022-08-05T12:03:42.229Z,100758.00
2022-08-05T12:06:24.838Z,100747.00
2022-08-05T12:08:54.840Z,100750.03
2022-08-05T12:11:39.872Z,100755.22
2022-08-05T12:14:10.383Z,100756.13
2022-08-05T12:16:39.318Z,100755.28
2022-08-05T12:19:08.215Z,100758.38
2022-08-05T12:22:02.669Z,100753.50
2022-08-05T12:24:30.044Z,100763.59
2022-08-05T12:26:57.296Z,100760.31
2022-08-05T12:29:26.428Z,100757.81
2022-08-05T12:31:57.775Z,100762.09
2022-08-05T12:34:30.366Z,100754.06
2022-08-05T12:37:00.596Z,100765.44
2022-08-05T12:39:37.528Z,100753.41
2022-08-05T12:42:15.006Z,100758.28
2022-08-05T12:44:43.148Z,100763.88
2022-08-05T12:47:12.350Z,100758.78
2022-08-05T12:50:03.537Z,100763.06
2022-08-05T12:52:38.620Z,100766.38
2022-08-05T12:55:26.573Z,100776.03
2022-08-05T12:58:49.931Z,100766.03
2022-08-05T13:02:01.007Z,100763.81
2022-08-05T13:03:41.810Z,100772.81
2022-08-05T13:06:17.146Z,100769.31
2022-08-05T13:08:51.791Z,100761.06
2022-08-05T13:11:25.451Z,100768.50
2022-08-05T13:14:35.999Z,100769.97
2022-08-05T13:17:08.908Z,100778.03
2022-08-05T13:19:51.606Z,100781.31
2022-08-05T13:22:29.201Z,100776.56
2022-08-05T13:24:58.145Z,100779.53
2022-08-05T13:27:38.253Z,100765.09
2022-08-05T13:30:34.389Z,100764.97
2022-08-05T13:32:54.017Z,100763.06
2022-08-05T13:35:42.930Z,100767.16
2022-08-05T13:38:10.779Z,100757.78
2022-08-05T13:40:50.059Z,100767.72
2022-08-05T13:43:21.925Z,100769.16
2022-08-05T13:45:48.878Z,100765.63
2022-08-05T13:48:58.070Z,100768.19
2022-08-05T13:51:13.923Z,100775.47
2022-08-05T13:53:47.703Z,100771.91
2022-08-05T13:56:18.474Z,100766.00
2022-08-05T13:58:53.216Z,100768.63
2022-08-05T14:01:25.851Z,100773.63
2022-08-05T14:04:21.246Z,100770.34
2022-08-05T14:06:47.911Z,100774.38
2022-08-05T14:09:25.357Z,100767.25
2022-08-05T14:12:04.471Z,100765.59
2022-08-05T14:14:42.818Z,100769.25
2022-08-05T14:17:17.026Z,100768.22
2022-08-05T14:19:54.391Z,100760.75
2022-08-05T14:22:23.889Z,100777.88
2022-08-05T14:24:57.039Z,100776.88
2022-08-05T14:27:24.217Z,100778.72
2022-08-05T14:29:55.441Z,100777.66
2022-08-05T14:32:27.680Z,100781.81
2022-08-05T14:34:54.787Z,100799.31
2022-08-05T14:37:24.239Z,100790.50
2022-08-05T14:40:14.281Z,100797.13
2022-08-05T14:42:43.251Z,100795.94
2022-08-05T14:45:10.227Z,100802.44
2022-08-05T14:48:03.700Z,100808.31
2022-08-05T14:50:25.294Z,100807.25
2022-08-05T14:52:58.423Z,100803.50
2022-08-05T14:55:28.767Z,100799.31
2022-08-05T14:58:11.251Z,100800.50
2022-08-05T15:00:58.813Z,100797.31
2022-08-05T15:03:33.756Z,100802.41
2022-08-05T15:06:08.126Z,100790.19
2022-08-05T15:08:59.868Z,100785.78
2022-08-05T15:11:52.656Z,100788.47
2022-08-05T15:14:34.247Z,100803.72
2022-08-05T15:17:03.974Z,100791.19
2022-08-05T15:19:31.908Z,100795.38
2022-08-05T15:22:00.947Z,100805.16
2022-08-05T15:24:28.307Z,100815.63
2022-08-05T15:26:55.994Z,100811.38
2022-08-05T15:29:23.514Z,100806.41
2022-08-05T15:31:56.471Z,100822.38
2022-08-05T15:34:32.307Z,100819.50
2022-08-05T15:37:03.461Z,100811.25
2022-08-05T15:40:58.614Z,100815.16
2022-08-05T15:42:54.422Z,100818.41
2022-08-05T15:45:06.931Z,100832.22
2022-08-05T15:47:36.305Z,100833.53
2022-08-05T15:50:03.766Z,100829.97
2022-08-05T15:52:52.934Z,100836.53
2022-08-05T15:55:19.276Z,100840.31
2022-08-05T15:57:51.329Z,100839.22
2022-08-05T16:00:25.992Z,100847.28
2022-08-05T16:02:59.402Z,100842.34
2022-08-05T16:05:28.161Z,100854.31
2022-08-05T16:07:55.213Z,100850.69
2022-08-05T16:10:26.739Z,100850.91
2022-08-05T16:12:53.656Z,100862.91
2022-08-05T16:15:23.135Z,100868.94
2022-08-05T16:17:57.987Z,100876.84
2022-08-05T16:20:25.420Z,100871.72
2022-08-05T16:22:51.938Z,100878.13
2022-08-05T16:25:18.501Z,100883.03
2022-08-05T16:28:00.388Z,100882.47
2022-08-05T16:30:32.449Z,100885.75
2022-08-05T16:33:00.094Z,100885.63
2022-08-05T16:35:28.637Z,100899.66
2022-08-05T16:38:15.603Z,100907.72
2022-08-05T16:40:51.602Z,100935.56
2022-08-05T16:43:23.485Z,100934.94
2022-08-05T16:46:07.434Z,100940.44
2022-08-05T16:48:39.115Z,100947.81
2022-08-05T16:51:08.969Z,100938.88
2022-08-05T16:54:04.148Z,100927.59
2022-08-05T16:56:29.221Z,100942.00
2022-08-05T16:58:57.409Z,100947.44
2022-08-05T17:01:24.546Z,100947.44
2022-08-05T17:03:51.815Z,100955.16
2022-08-05T17:06:18.512Z,100961.66
2022-08-05T17:08:52.035Z,100969.38
2022-08-05T17:11:23.725Z,100981.16
2022-08-05T17:14:00.137Z,100990.09
2022-08-05T17:16:33.573Z,100999.03
2022-08-05T17:19:02.820Z,100994.25
2022-08-05T17:21:36.034Z,101016.69
2022-08-05T17:24:19.600Z,101029.53
2022-08-05T17:26:52.373Z,101041.78
2022-08-05T17:29:22.229Z,101039.22
2022-08-05T17:31:58.192Z,101036.19
2022-08-05T17:34:30.166Z,101020.34
2022-08-05T17:36:59.808Z,101029.34
2022-08-05T17:39:34.424Z,101043.44
2022-08-05T17:42:20.104Z,101034.84
2022-08-05T17:44:50.208Z,101053.25
2022-08-05T17:47:22.538Z,101061.06
2022-08-05T17:49:59.922Z,101060.38
2022-08-05T17:52:31.511Z,101070.94
2022-08-05T17:54:58.062Z,101075.91
2022-08-05T17:57:24.712Z,101083.81
2022-08-05T18:00:03.726Z,101090.97
2022-08-05T18:02:35.360Z,101091.84
2022-08-05T18:05:06.459Z,101101.53
2022-08-05T18:07:41.536Z,101094.09
2022-08-05T18:10:10.754Z,101091.19
2022-08-05T18:12:37.899Z,101087.81
2022-08-05T18:15:05.442Z,101081.56
2022-08-05T18:17:58.890Z,101105.03
2022-08-05T18:20:29.436Z,101106.63
2022-08-05T18:23:00.611Z,101114.81
2022-08-05T18:25:39.588Z,101111.09
2022-08-05T18:28:11.648Z,101123.53
2022-08-05T18:30:40.186Z,101128.81
2022-08-05T18:33:08.431Z,101126.91
2022-08-05T18:36:01.032Z,101129.22
2022-08-05T18:38:25.822Z,101134.13
2022-08-05T18:41:56.592Z,101124.84
2022-08-05T18:43:42.734Z,101124.03
2022-08-05T18:46:14.868Z,101126.75
2022-08-05T18:48:41.949Z,101136.56
2022-08-05T18:52:04.445Z,101141.59
2022-08-05T18:54:14.651Z,101149.94
2022-08-05T18:56:41.737Z,101158.75
2022-08-05T18:59:43.239Z,101167.97
2022-08-05T19:02:04.836Z,101176.34
2022-08-05T19:04:38.109Z,101176.97
2022-08-05T19:07:24.864Z,101184.06
2022-08-05T19:09:56.661Z,101189.38
2022-08-05T19:12:23.867Z,101183.72
2022-08-05T19:15:00.522Z,101189.38
2022-08-05T19:17:59.575Z,101204.84
2022-08-05T19:20:15.962Z,101196.91
2022-08-05T19:22:44.098Z,101203.41
2022-08-05T19:25:10.842Z,101210.53
2022-08-05T19:27:48.716Z,101207.63
2022-08-05T19:30:16.656Z,101217.25
2022-08-05T19:32:47.385Z,101218.75
2022-08-05T19:35:14.399Z,101224.00
2022-08-05T19:38:04.400Z,101221.50
2022-08-05T19:40:28.683Z,101228.38
2022-08-05T19:43:04.731Z,101237.84
2022-08-05T19:45:33.130Z,101246.44
2022-08-05T19:48:03.384Z,101242.00
2022-08-05T19:50:31.830Z,101249.56
2022-08-05T19:52:58.573Z,101252.94
2022-08-05T19:56:13.641Z,101247.91
2022-08-05T19:58:28.327Z,101252.06
2022-08-05T20:00:56.232Z,101249.13
2022-08-05T20:03:22.812Z,101253.53
2022-08-05T20:05:56.444Z,101257.06
2022-08-05T20:08:24.229Z,101260.44
2022-08-05T20:10:51.593Z,101270.25
2022-08-05T20:13:30.380Z,101270.25
2022-08-05T20:16:06.275Z,101267.53
2022-08-05T20:18:36.302Z,101271.91
2022-08-05T20:21:06.491Z,101272.75
2022-08-05T20:23:39.506Z,101280.88
2022-08-05T20:26:17.499Z,101285.09
2022-08-05T20:28:45.694Z,101280.47
2022-08-05T20:31:12.579Z,101282.13
2022-08-05T20:33:42.560Z,101298.03
2022-08-05T20:36:10.068Z,101303.91
2022-08-05T20:38:37.753Z,101313.31
2022-08-05T20:41:08.085Z,101326.09
2022-08-05T20:44:00.400Z,101316.41
2022-08-05T20:46:25.070Z,101324.34
2022-08-05T20:48:52.336Z,101325.63
2022-08-05T20:51:18.887Z,101335.63
2022-08-05T20:53:56.872Z,101341.94
2022-08-05T20:56:28.763Z,101351.13
2022-08-05T20:58:56.700Z,101346.09
2022-08-05T21:01:38.250Z,101352.16
2022-08-05T21:04:07.179Z,101355.22
2022-08-05T21:06:36.737Z,101362.81
2022-08-05T21:09:05.576Z,101365.31
2022-08-05T21:12:09.558Z,101374.66
2022-08-05T21:14:20.084Z,101366.50
2022-08-05T21:16:47.827Z,101368.59
2022-08-05T21:19:16.580Z,101380.09
2022-08-05T21:21:50.764Z,101378.38
2022-08-05T21:24:19.577Z,101387.00
2022-08-05T21:26:57.928Z,101382.59
2022-08-05T21:29:32.078Z,101381.72
2022-08-05T21:31:59.429Z,101383.25
2022-08-05T21:34:26.042Z,101380.28
2022-08-05T21:36:54.750Z,101386.16
2022-08-05T21:39:26.942Z,101387.63
2022-08-05T21:42:01.060Z,101390.75
2022-08-05T21:44:28.304Z,101388.88
2022-08-05T21:46:55.740Z,101381.50
2022-08-05T21:49:59.522Z,101376.00
2022-08-05T21:52:22.374Z,101385.84
2022-08-05T21:54:55.009Z,101374.72
2022-08-05T21:57:31.423Z,101391.41
2022-08-05T22:00:07.104Z,101398.13
2022-08-05T22:02:38.107Z,101401.41
2022-08-05T22:05:05.391Z,101409.50
2022-08-05T22:07:40.186Z,101408.69
2022-08-05T22:10:26.556Z,101392.97
2022-08-05T22:12:53.396Z,101386.03
2022-08-05T22:16:01.912Z,101383.72
2022-08-05T22:18:07.019Z,101399.97
2022-08-05T22:20:35.624Z,101418.41
2022-08-05T22:23:24.120Z,101408.84
2022-08-05T22:26:11.811Z,101414.50
2022-08-05T22:28:41.484Z,101420.47
2022-08-05T22:31:07.952Z,101418.41
2022-08-05T22:33:57.945Z,101416.28
2022-08-05T22:36:24.628Z,101417.91
2022-08-05T22:38:54.642Z,101429.16
2022-08-05T22:42:04.932Z,101432.06
2022-08-05T22:44:08.796Z,101431.16
2022-08-05T22:46:40.214Z,101440.41
2022-08-05T22:49:12.413Z,101433.56
2022-08-05T22:52:05.086Z,101433.56
2022-08-05T22:54:35.562Z,101447.91
2022-08-05T22:57:03.571Z,101443.06
2022-08-05T22:59:43.918Z,101436.66
2022-08-05T23:02:29.024Z,101448.72
2022-08-05T23:04:58.232Z,101443.66
2022-08-05T23:07:28.999Z,101448.44
2022-08-05T23:10:01.981Z,101447.34
2022-08-05T23:12:32.700Z,101441.97
2022-08-05T23:15:03.318Z,101449.47
2022-08-05T23:17:32.749Z,101441.63
2022-08-05T23:20:16.581Z,101451.56
2022-08-05T23:22:47.624Z,101457.97
2022-08-05T23:25:52.394Z,101460.78
2022-08-05T23:28:07.995Z,101458.25
2022-08-05T23:30:40.473Z,101459.00
2022-08-05T23:33:15.932Z,101455.75
2022-08-05T23:35:43.186Z,101459.47
2022-08-05T23:38:12.140Z,101472.13
2022-08-05T23:40:38.803Z,101474.75
2022-08-05T23:43:24.267Z,101483.72
2022-08-05T23:45:52.451Z,101503.88
2022-08-05T23:48:19.737Z,101497.03
2022-08-05T23:50:46.398Z,101500.88
2022-08-05T23:53:22.362Z,101484.59
2022-08-05T23:55:49.710Z,101482.16
2022-08-05T23:58:31.419Z,101489.81
